Time;durP1;ratioP1;P1;durP2;ratioP2;P2;SDS_P1;SDS_P2;PMS_P1;PMS_P2;Temp;Humidity;BMP_temperature;BMP_pressure;BME280_temperature;BME280_humidity;BME280_pressure;Samples;Min_cycle;Max_cycle;Signal;HPM_P1;HPM_P2
2021/10/01 00:01:17;;;;;;;;;;;;;;;20.14;72.49;101040.00;7288935;19;155124;-52
2021/10/01 00:03:44;;;;;;;;;;;;;;;20.14;72.66;101040.00;7290411;19;152115;-51
2021/10/01 00:06:11;;;;;;;;;;;;;;;20.14;72.93;101041.97;7290384;19;153142;-52
2021/10/01 00:08:38;;;;;;;;;;;;;;;20.13;73.38;101034.69;7289729;19;153338;-52
2021/10/01 00:11:05;;;;;;;;;;;;;;;20.13;73.27;101034.69;7290519;19;152092;-52
2021/10/01 00:13:32;;;;;;;;;;;;;;;20.13;73.38;101034.69;7290655;19;152888;-52
2021/10/01 00:15:59;;;;;;;;;;;;;;;20.12;73.00;101033.88;7296513;19;154254;-51
2021/10/01 00:18:26;;;;;;;;;;;;;;;20.11;73.64;101023.81;7289709;19;152551;-52
2021/10/01 00:20:53;;;;;;;;;;;;;;;20.11;73.87;101012.59;7289770;19;153651;-51
2021/10/01 00:23:20;;;;;;;;;;;;;;;20.10;73.82;101012.88;7289585;19;152069;-51
2021/10/01 00:25:46;;;;;;;;;;;;;;;20.09;74.39;101017.66;7290514;19;152580;-51
2021/10/01 00:28:13;;;;;;;;;;;;;;;20.11;74.26;101008.94;7287086;19;153918;-51
2021/10/01 00:30:40;;;;;;;;;;;;;;;20.10;74.34;101005.31;7288777;19;151774;-51
2021/10/01 00:33:07;;;;;;;;;;;;;;;20.10;74.21;100999.69;7290104;19;152838;-51
2021/10/01 00:35:34;;;;;;;;;;;;;;;20.09;74.14;100994.38;7287454;19;154198;-52
2021/10/01 00:38:01;;;;;;;;;;;;;;;20.09;74.51;100994.38;7297462;19;151747;-52
2021/10/01 00:40:28;;;;;;;;;;;;;;;20.08;74.75;100981.50;7288589;19;154070;-52
2021/10/01 00:42:55;;;;;;;;;;;;;;;20.08;74.45;100982.31;7288060;19;151994;-52
2021/10/01 00:45:23;;;;;;;;;;;;;;;20.06;74.75;100972.56;7288129;19;152689;-51
2021/10/01 00:47:50;;;;;;;;;;;;;;;20.07;75.17;100971.41;7285189;19;153753;-52
2021/10/01 00:50:17;;;;;;;;;;;;;;;20.07;74.83;100974.22;7288959;19;151960;-51
2021/10/01 00:52:44;;;;;;;;;;;;;;;20.07;74.74;100968.63;7288985;19;152588;-52
2021/10/01 00:55:11;;;;;;;;;;;;;;;20.06;74.97;100969.75;7286038;19;153761;-52
2021/10/01 00:57:38;;;;;;;;;;;;;;;20.06;75.36;100958.53;7284257;19;151874;-52
2021/10/01 01:00:07;;;;;;;;;;;;;;;20.06;74.90;100958.53;7293230;19;152763;-52
2021/10/01 01:02:35;;;;;;;;;;;;;;;20.05;74.89;100951.25;7288965;19;151647;-52
2021/10/01 01:05:03;;;;;;;;;;;;;;;20.05;74.82;100943.66;7289266;19;151828;-52
2021/10/01 01:07:33;;;;;;;;;;;;;;;20.05;75.37;100934.41;7286778;19;153866;-52
2021/10/01 01:10:03;;;;;;;;;;;;;;;20.06;75.04;100933.28;7286797;19;151660;-52
2021/10/01 01:12:33;;;;;;;;;;;;;;;20.05;75.30;100923.19;7288796;19;152629;-52
2021/10/01 01:15:05;;;;;;;;;;;;;;;20.02;75.35;100919.06;7287748;19;154009;-51
2021/10/01 01:17:36;;;;;;;;;;;;;;;20.04;75.98;100929.94;7288445;19;152220;-51
2021/10/01 01:20:05;;;;;;;;;;;;;;;20.03;75.74;100931.09;7287264;19;152569;-52
2021/10/01 01:22:35;;;;;;;;;;;;;;;20.05;75.60;100932.44;7293300;19;152164;-51
2021/10/01 01:25:14;;;;;;;;;;;;;;;20.04;75.90;100922.38;7288754;19;152707;-52
2021/10/01 01:27:43;;;;;;;;;;;;;;;20.04;75.75;100921.53;7286110;19;154058;-52
2021/10/01 01:30:12;;;;;;;;;;;;;;;20.03;75.83;100909.50;7285058;19;151901;-52
2021/10/01 01:32:41;;;;;;;;;;;;;;;20.03;75.87;100915.09;7288592;19;153292;-52
2021/10/01 01:35:11;;;;;;;;;;;;;;;20.03;76.20;100908.66;7287225;19;153366;-52
2021/10/01 01:37:41;;;;;;;;;;;;;;;20.03;76.01;100898.28;7289248;19;153236;-52
2021/10/01 01:40:09;;;;;;;;;;;;;;;20.02;76.31;100892.97;7287848;19;152041;-52
2021/10/01 01:42:38;;;;;;;;;;;;;;;20.02;76.09;100891.00;7287441;19;152596;-51
2021/10/01 01:45:05;;;;;;;;;;;;;;;20.04;76.06;100891.50;7293539;19;151610;-52
2021/10/01 01:47:33;;;;;;;;;;;;;;;20.03;76.29;100883.44;7284541;19;153468;-51
2021/10/01 01:50:01;;;;;;;;;;;;;;;20.02;76.56;100887.38;7287052;19;152193;-52
2021/10/01 01:52:29;;;;;;;;;;;;;;;20.01;76.52;100878.13;7288185;19;153074;-51
2021/10/01 01:54:56;;;;;;;;;;;;;;;20.02;76.62;100874.19;7284142;19;152190;-52
2021/10/01 01:57:24;;;;;;;;;;;;;;;20.03;76.54;100869.41;7282531;19;151890;-51
2021/10/01 01:59:51;;;;;;;;;;;;;;;20.01;76.76;100872.50;7283792;19;153767;-51
2021/10/01 02:02:19;;;;;;;;;;;;;;;20.01;76.59;100871.66;7286380;19;153817;-52
2021/10/01 02:04:46;;;;;;;;;;;;;;;20.01;76.61;100866.06;7286310;19;151998;-52
2021/10/01 02:07:13;;;;;;;;;;;;;;;20.03;76.47;100858.19;7293032;19;152422;-52
2021/10/01 02:09:41;;;;;;;;;;;;;;;20.01;76.98;100858.47;7287581;19;151854;-52
2021/10/01 02:12:09;;;;;;;;;;;;;;;20.01;77.16;100846.44;7286091;19;152747;-51
2021/10/01 02:14:43;;;;;;;;;;;;;;;20.00;77.04;100854.00;7287240;19;153448;-51
2021/10/01 02:17:12;;;;;;;;;;;;;;;20.00;76.95;100837.19;7286824;19;151514;-52
2021/10/01 02:19:39;;;;;;;;;;;;;;;20.01;76.83;100838.00;7287049;19;153188;-51
2021/10/01 02:22:06;;;;;;;;;;;;;;;20.00;76.88;100828.75;7283285;19;153274;-51
2021/10/01 02:24:34;;;;;;;;;;;;;;;19.99;76.95;100827.09;7287356;19;151984;-51
2021/10/01 02:27:03;;;;;;;;;;;;;;;19.99;77.32;100832.69;7293755;19;153488;-51
2021/10/01 02:29:37;;;;;;;;;;;;;;;19.99;77.19;100827.09;7286519;19;151766;-52
2021/10/01 02:32:07;;;;;;;;;;;;;;;19.98;77.35;100823.47;7287243;19;151874;-52
2021/10/01 02:34:37;;;;;;;;;;;;;;;19.97;77.47;100813.41;7283182;19;152166;-51
2021/10/01 02:37:07;;;;;;;;;;;;;;;19.99;77.36;100807.47;7286958;19;151810;-52
2021/10/01 02:39:37;;;;;;;;;;;;;;;19.96;77.93;100794.91;7284863;19;153242;-52
2021/10/01 02:42:05;;;;;;;;;;;;;;;19.97;77.80;100788.16;7282473;19;154007;-52
2021/10/01 02:44:32;;;;;;;;;;;;;;;19.98;78.18;100795.44;7286625;19;151483;-52
2021/10/01 02:46:59;;;;;;;;;;;;;;;19.96;77.80;100780.88;7286038;19;152690;-51
2021/10/01 02:49:26;;;;;;;;;;;;;;;19.98;77.86;100780.59;7286104;19;153939;-52
2021/10/01 02:51:55;;;;;;;;;;;;;;;19.98;77.72;100772.16;7284795;19;152675;-51
2021/10/01 02:54:25;;;;;;;;;;;;;;;19.94;78.26;100766.31;7284643;19;153731;-51
2021/10/01 02:56:55;;;;;;;;;;;;;;;19.97;78.12;100754.50;7285233;19;152525;-52
2021/10/01 02:59:25;;;;;;;;;;;;;;;19.98;77.99;100747.78;7279502;19;152744;-51
2021/10/01 03:01:53;;;;;;;;;;;;;;;19.97;78.48;100746.09;7283234;19;154285;-52
2021/10/01 03:04:23;;;;;;;;;;;;;;;19.95;78.26;100744.72;7285416;19;151846;-52
2021/10/01 03:06:51;;;;;;;;;;;;;;;19.97;77.85;100743.28;7285191;19;152074;-52
2021/10/01 03:09:21;;;;;;;;;;;;;;;19.94;78.64;100737.47;7282342;19;153259;-52
2021/10/01 03:11:50;;;;;;;;;;;;;;;19.96;78.36;100747.22;7291558;19;152242;-51
2021/10/01 03:14:19;;;;;;;;;;;;;;;19.97;78.00;100737.69;7282655;19;153265;-51
2021/10/01 03:16:48;;;;;;;;;;;;;;;19.96;78.19;100736.00;7284734;19;151460;-51
2021/10/01 03:19:17;;;;;;;;;;;;;;;19.92;78.62;100729.38;7285445;19;152781;-52
2021/10/01 03:21:44;;;;;;;;;;;;;;;19.97;78.35;100720.03;7282705;19;153245;-52
2021/10/01 03:24:11;;;;;;;;;;;;;;;19.98;78.56;100724.50;7285601;19;151726;-51
2021/10/01 03:26:37;;;;;;;;;;;;;;;19.97;78.10;100711.59;7284843;19;153552;-51
2021/10/01 03:29:05;;;;;;;;;;;;;;;19.94;78.59;100710.25;7282166;19;152025;-52
2021/10/01 03:31:32;;;;;;;;;;;;;;;19.94;78.86;100715.03;7285732;19;151683;-52
2021/10/01 03:33:59;;;;;;;;;;;;;;;19.93;79.08;100711.41;7289478;19;151847;-52
2021/10/01 03:36:26;;;;;;;;;;;;;;;19.95;78.49;100708.28;7282442;19;151621;-51
2021/10/01 03:38:55;;;;;;;;;;;;;;;19.92;79.12;100704.13;7283813;19;152017;-51
2021/10/01 03:41:22;;;;;;;;;;;;;;;19.90;78.99;100699.97;7282368;19;152861;-51
2021/10/01 03:43:48;;;;;;;;;;;;;;;19.91;78.96;100701.63;7284373;19;151811;-52
2021/10/01 03:46:15;;;;;;;;;;;;;;;19.92;78.69;100695.72;7284980;19;152525;-52
2021/10/01 03:48:42;;;;;;;;;;;;;;;19.92;79.15;100697.69;7280224;19;154173;-51
2021/10/01 03:51:09;;;;;;;;;;;;;;;19.94;78.78;100676.59;7284748;19;151738;-51
2021/10/01 03:53:35;;;;;;;;;;;;;;;19.89;79.47;100679.53;7286757;19;152720;-52
2021/10/01 03:56:03;;;;;;;;;;;;;;;19.91;79.40;100685.63;7297063;19;154318;-51
2021/10/01 03:58:30;;;;;;;;;;;;;;;19.89;79.12;100685.13;7289161;19;152634;-51
2021/10/01 04:00:56;;;;;;;;;;;;;;;19.91;79.39;100682.84;7286949;19;154311;-52
2021/10/01 04:03:24;;;;;;;;;;;;;;;19.90;79.38;100672.75;7291264;19;151676;-52
2021/10/01 04:05:53;;;;;;;;;;;;;;;19.90;79.79;100680.34;7288912;19;152672;-52
2021/10/01 04:08:19;;;;;;;;;;;;;;;19.90;79.48;100671.91;7288895;19;152720;-52
2021/10/01 04:10:47;;;;;;;;;;;;;;;19.91;79.17;100671.63;7290085;19;152065;-51
2021/10/01 04:13:14;;;;;;;;;;;;;;;19.90;79.45;100674.72;7290870;19;153212;-52
2021/10/01 04:15:41;;;;;;;;;;;;;;;19.90;79.56;100669.13;7289700;19;152277;-51
2021/10/01 04:18:08;;;;;;;;;;;;;;;19.90;79.29;100672.75;7298304;19;152057;-52
2021/10/01 04:20:37;;;;;;;;;;;;;;;19.91;79.59;100660.41;7287261;19;154050;-52
2021/10/01 04:23:04;;;;;;;;;;;;;;;19.88;79.66;100652.63;7288031;19;152366;-52
2021/10/01 04:25:31;;;;;;;;;;;;;;;19.87;79.62;100652.94;7290166;19;154061;-52
2021/10/01 04:27:58;;;;;;;;;;;;;;;19.89;79.71;100657.09;7289531;19;153476;-52
2021/10/01 04:30:25;;;;;;;;;;;;;;;19.86;80.13;100652.09;7287651;19;152153;-52
2021/10/01 04:35:21;;;;;;;;;;;;;;;19.90;79.61;100638.28;7287055;19;153306;-52
2021/10/01 04:37:48;;;;;;;;;;;;;;;19.89;79.75;100648.69;7298611;19;151791;-51
2021/10/01 04:40:15;;;;;;;;;;;;;;;19.86;80.31;100640.88;7285820;19;153260;-52
2021/10/01 04:42:42;;;;;;;;;;;;;;;19.85;80.74;100636.41;7289818;19;151893;-51
2021/10/01 04:45:09;;;;;;;;;;;;;;;19.86;80.40;100635.25;7289944;19;152642;-52
2021/10/01 04:47:37;;;;;;;;;;;;;;;19.83;80.46;100638.69;7288503;19;153941;-51
2021/10/01 04:50:05;;;;;;;;;;;;;;;19.81;81.08;100634.53;7286922;19;151581;-51
2021/10/01 04:52:32;;;;;;;;;;;;;;;19.81;80.67;100626.97;7287838;19;152464;-51
2021/10/01 04:54:59;;;;;;;;;;;;;;;19.80;81.21;100622.53;7289111;19;153284;-51
2021/10/01 04:57:26;;;;;;;;;;;;;;;19.82;81.07;100623.03;7289731;19;151843;-51
2021/10/01 04:59:53;;;;;;;;;;;;;;;19.81;80.80;100634.53;7293270;19;151727;-51
2021/10/01 05:02:20;;;;;;;;;;;;;;;19.85;80.51;100621.59;7289293;19;151797;-52
2021/10/01 05:04:46;;;;;;;;;;;;;;;19.82;81.13;100630.59;7284179;19;152119;-52
2021/10/01 05:07:14;;;;;;;;;;;;;;;19.80;81.32;100619.72;7288493;19;153894;-51
2021/10/01 05:09:41;;;;;;;;;;;;;;;19.78;81.25;100613.56;7284397;19;151970;-52
2021/10/01 05:12:08;;;;;;;;;;;;;;;19.80;81.14;100614.09;7289060;19;152071;-51
2021/10/01 05:14:34;;;;;;;;;;;;;;;19.80;80.83;100614.09;7287657;19;153787;-51
2021/10/01 05:17:01;;;;;;;;;;;;;;;19.81;80.98;100615.75;7287707;19;151767;-52
2021/10/01 05:19:28;;;;;;;;;;;;;;;19.80;80.99;100610.47;7288580;19;153414;-52
2021/10/01 05:21:55;;;;;;;;;;;;;;;19.78;81.38;100610.78;7293827;19;152228;-52
2021/10/01 05:24:22;;;;;;;;;;;;;;;19.84;80.87;100622.72;7287599;19;151964;-51
2021/10/01 05:26:48;;;;;;;;;;;;;;;19.86;81.22;100612.84;7287942;19;153548;-51
2021/10/01 05:29:15;;;;;;;;;;;;;;;19.82;81.44;100611.81;7287801;19;151726;-51
2021/10/01 05:31:46;;;;;;;;;;;;;;;19.79;81.80;100615.25;7287871;19;153194;-51
2021/10/01 05:34:12;;;;;;;;;;;;;;;19.83;81.65;100607.03;7285925;19;153773;-52
2021/10/01 05:36:39;;;;;;;;;;;;;;;19.81;82.10;100609.31;7287755;19;151929;-52
2021/10/01 05:39:06;;;;;;;;;;;;;;;19.78;82.18;100596.75;7288157;19;153099;-51
2021/10/01 05:41:33;;;;;;;;;;;;;;;19.79;82.25;100597.59;7287681;19;153577;-52
2021/10/01 05:44:00;;;;;;;;;;;;;;;19.83;81.76;100585.44;7294379;19;151763;-52
2021/10/01 05:46:27;;;;;;;;;;;;;;;19.87;81.22;100583.66;7287334;19;153951;-52
2021/10/01 05:48:58;;;;;;;;;;;;;;;19.89;81.36;100595.41;7285941;19;151970;-52
2021/10/01 05:51:25;;;;;;;;;;;;;;;19.94;81.71;100584.06;7285911;19;153105;-52
2021/10/01 05:56:28;;;;;;;;;;;;;;;19.99;82.69;100583.94;7287158;19;151801;-52
2021/10/01 05:58:55;;;;;;;;;;;;;;;20.03;83.23;100580.53;7285673;19;152800;-52
2021/10/01 06:01:22;;;;;;;;;;;;;;;20.09;84.06;100579.25;7285244;19;154413;-52
2021/10/01 06:03:51;;;;;;;;;;;;;;;20.14;84.70;100590.38;7287568;19;151780;-52
2021/10/01 06:06:18;;;;;;;;;;;;;;;20.19;85.22;100587.47;7292030;19;152095;-52
2021/10/01 06:08:45;;;;;;;;;;;;;;;20.24;84.57;100579.75;7287644;19;151501;-52
2021/10/01 06:11:12;;;;;;;;;;;;;;;20.29;84.75;100590.88;7285496;19;151803;-52
2021/10/01 06:13:39;;;;;;;;;;;;;;;20.36;84.83;100599.72;7284932;19;153261;-51
2021/10/01 06:16:06;;;;;;;;;;;;;;;20.42;84.74;100609.69;7286708;19;152710;-52
2021/10/01 06:18:33;;;;;;;;;;;;;;;20.50;85.64;100607.25;7287321;19;152551;-52
2021/10/01 06:21:01;;;;;;;;;;;;;;;20.57;84.93;100604.84;7285720;19;154079;-52
2021/10/01 06:23:33;;;;;;;;;;;;;;;20.68;83.57;100620.28;7286649;19;152069;-52
2021/10/01 06:26:02;;;;;;;;;;;;;;;20.74;82.44;100624.66;7285573;19;154529;-52
2021/10/01 06:28:29;;;;;;;;;;;;;;;20.80;80.87;100634.63;7291669;19;151971;-52
2021/10/01 06:30:58;;;;;;;;;;;;;;;20.85;80.06;100643.72;7281532;19;152421;-52
2021/10/01 06:33:26;;;;;;;;;;;;;;;20.90;78.89;100641.94;7286782;19;153287;-52
2021/10/01 06:35:52;;;;;;;;;;;;;;;20.92;77.04;100637.69;7284304;19;151973;-52
2021/10/01 06:38:19;;;;;;;;;;;;;;;20.96;75.94;100626.63;7285194;19;153585;-52
2021/10/01 06:40:46;;;;;;;;;;;;;;;20.99;75.09;100638.03;7283470;19;154061;-53
2021/10/01 06:43:15;;;;;;;;;;;;;;;21.02;74.70;100622.56;7287111;19;152260;-52
2021/10/01 06:45:44;;;;;;;;;;;;;;;21.05;73.72;100633.13;7285663;19;153302;-52
2021/10/01 07:23:43;;;;;;;;;;;;;;;21.21;70.32;100668.16;7284599;19;152504;-52
2021/10/01 07:36:27;;;;;;;;;;;;;;;21.20;69.89;100633.63;7288351;19;151915;-51
2021/10/01 08:19:15;;;;;;;;;;;;;;;21.49;66.61;100641.53;7298147;19;151842;-52
2021/10/01 08:21:42;;;;;;;;;;;;;;;21.51;66.41;100652.47;7290176;19;153804;-52
2021/10/01 08:24:12;;;;;;;;;;;;;;;21.50;66.03;100643.22;7290554;19;151836;-52
2021/10/01 08:26:40;;;;;;;;;;;;;;;21.50;66.11;100637.59;7288142;19;153129;-52
2021/10/01 08:29:07;;;;;;;;;;;;;;;21.48;65.96;100651.16;7285175;19;153264;-53
2021/10/01 08:31:34;;;;;;;;;;;;;;;21.49;66.17;100632.28;7285683;19;152095;-50
2021/10/01 08:34:02;;;;;;;;;;;;;;;21.49;66.10;100635.91;7290928;19;153176;-50
2021/10/01 08:36:29;;;;;;;;;;;;;;;21.50;65.62;100662.88;7286714;19;153271;-50
2021/10/01 08:38:56;;;;;;;;;;;;;;;21.49;65.84;100668.81;7297614;19;151742;-49
2021/10/01 08:41:22;;;;;;;;;;;;;;;21.47;65.56;100676.75;7286469;19;154155;-52
2021/10/01 08:43:49;;;;;;;;;;;;;;;21.46;65.57;100664.69;7289569;19;151745;-50
2021/10/01 08:46:19;;;;;;;;;;;;;;;21.45;65.70;100671.44;7289532;19;153830;-50
2021/10/01 08:48:46;;;;;;;;;;;;;;;21.46;65.58;100667.50;7286415;19;153637;-50
2021/10/01 08:51:14;;;;;;;;;;;;;;;21.46;65.15;100675.94;7288365;19;151782;-50
2021/10/01 08:53:41;;;;;;;;;;;;;;;21.44;65.10;100681.03;7287376;19;153509;-50
2021/10/01 08:56:10;;;;;;;;;;;;;;;21.41;65.51;100678.88;7288072;19;152624;-51
2021/10/01 08:58:37;;;;;;;;;;;;;;;21.41;65.23;100676.06;7286698;19;152202;-50
2021/10/01 09:01:04;;;;;;;;;;;;;;;21.40;65.27;100684.81;7296265;19;152593;-50
2021/10/01 09:03:31;;;;;;;;;;;;;;;21.37;65.07;100696.69;7288349;19;151820;-51
2021/10/01 09:05:58;;;;;;;;;;;;;;;21.35;65.47;100688.56;7288686;19;153168;-52
2021/10/01 09:08:25;;;;;;;;;;;;;;;21.36;65.28;100698.66;7287898;19;153771;-53
2021/10/01 09:10:55;;;;;;;;;;;;;;;21.36;65.52;100701.47;7286655;19;151880;-53
2021/10/01 09:13:22;;;;;;;;;;;;;;;21.33;65.68;100693.69;7287484;19;153309;-50
2021/10/01 09:15:57;;;;;;;;;;;;;;;21.34;65.38;100680.47;7286734;19;152682;-50
2021/10/01 09:18:25;;;;;;;;;;;;;;;21.30;65.65;100686.72;7289584;19;151773;-50
2021/10/01 09:21:01;;;;;;;;;;;;;;;21.30;65.59;100692.34;7286942;19;153274;-51
2021/10/01 09:23:28;;;;;;;;;;;;;;;21.27;65.54;100692.16;7293955;19;153282;-51
2021/10/01 09:25:58;;;;;;;;;;;;;;;21.28;65.68;100683.41;7286447;19;153884;-51
2021/10/01 09:28:25;;;;;;;;;;;;;;;21.29;65.61;100681.44;7285598;19;152765;-51
2021/10/01 09:30:52;;;;;;;;;;;;;;;21.27;65.75;100689.34;7280916;19;153954;-51
2021/10/01 09:33:20;;;;;;;;;;;;;;;21.27;65.73;100681.75;7282990;19;152230;-52
2021/10/01 09:35:48;;;;;;;;;;;;;;;21.23;66.15;100680.75;7284127;19;153337;-52
2021/10/01 09:38:17;;;;;;;;;;;;;;;21.21;66.11;100683.03;7289634;19;151558;-52
2021/10/01 09:40:45;;;;;;;;;;;;;;;21.20;65.95;100678.56;7288512;19;152760;-52
2021/10/01 09:43:15;;;;;;;;;;;;;;;21.18;66.20;100683.66;7286175;19;153344;-52
2021/10/01 09:45:56;;;;;;;;;;;;;;;21.16;66.64;100679.53;7294277;19;151518;-53
2021/10/01 09:48:27;;;;;;;;;;;;;;;21.15;66.72;100684.31;7285820;19;153923;-52
2021/10/01 09:51:06;;;;;;;;;;;;;;;21.12;66.78;100682.09;7285011;19;151817;-51
2021/10/01 09:53:40;;;;;;;;;;;;;;;21.13;66.81;100691.38;7288901;19;153608;-52
2021/10/01 09:56:25;;;;;;;;;;;;;;;21.11;66.64;100685.25;7286305;19;152313;-52
2021/10/01 09:58:55;;;;;;;;;;;;;;;21.10;67.07;100681.59;7285736;19;152525;-52
2021/10/01 10:01:21;;;;;;;;;;;;;;;21.09;67.01;100679.94;7285896;19;151777;-52
2021/10/01 10:03:49;;;;;;;;;;;;;;;21.07;67.19;100673.00;7284381;19;152638;-52
2021/10/01 10:06:16;;;;;;;;;;;;;;;21.05;67.27;100675.28;7285618;19;152083;-52
2021/10/01 10:08:43;;;;;;;;;;;;;;;21.04;67.04;100682.88;7292786;19;152968;-52
2021/10/01 10:11:12;;;;;;;;;;;;;;;21.02;67.49;100682.38;7283833;19;152264;-52
2021/10/01 10:13:40;;;;;;;;;;;;;;;21.00;67.35;100679.03;7287862;19;153119;-52
2021/10/01 10:16:08;;;;;;;;;;;;;;;20.99;67.59;100683.00;7285487;19;153442;-52
2021/10/01 10:18:35;;;;;;;;;;;;;;;21.01;67.54;100679.88;7285202;19;151782;-52
2021/10/01 10:21:03;;;;;;;;;;;;;;;21.00;67.58;100678.19;7285414;19;152708;-52
2021/10/01 10:23:30;;;;;;;;;;;;;;;20.98;67.51;100681.34;7286712;19;152344;-52
2021/10/01 10:25:57;;;;;;;;;;;;;;;20.97;67.69;100676.03;7285029;19;152050;-53
2021/10/01 10:28:24;;;;;;;;;;;;;;;20.98;67.22;100674.91;7285230;19;152872;-52
2021/10/01 10:30:51;;;;;;;;;;;;;;;21.00;67.53;100670.59;7288546;19;153818;-52
2021/10/01 10:33:22;;;;;;;;;;;;;;;21.01;67.52;100679.88;7287755;19;152928;-52
2021/10/01 10:35:49;;;;;;;;;;;;;;;20.99;67.50;100668.94;7284407;19;153618;-52
2021/10/01 10:38:18;;;;;;;;;;;;;;;20.99;68.16;100676.53;7287303;19;151416;-52
2021/10/01 10:40:45;;;;;;;;;;;;;;;20.98;67.84;100681.34;7286592;19;153054;-53
2021/10/01 10:43:12;;;;;;;;;;;;;;;20.95;68.12;100676.34;7285558;19;153686;-52
2021/10/01 10:45:39;;;;;;;;;;;;;;;20.94;67.92;100683.09;7284813;19;151752;-52
2021/10/01 10:48:09;;;;;;;;;;;;;;;20.91;67.35;100680.09;7283857;19;151865;-52
2021/10/01 10:50:38;;;;;;;;;;;;;;;20.90;67.23;100686.88;7292406;19;153508;-52
2021/10/01 10:53:14;;;;;;;;;;;;;;;20.89;67.52;100680.44;7284889;19;153258;-52
2021/10/01 10:55:44;;;;;;;;;;;;;;;20.86;67.08;100678.25;7283831;19;152669;-52
2021/10/01 10:58:14;;;;;;;;;;;;;;;20.85;67.42;100676.59;7286430;19;152015;-52
2021/10/01 11:00:42;;;;;;;;;;;;;;;20.85;66.91;100668.16;7280613;19;153024;-52
2021/10/01 11:03:12;;;;;;;;;;;;;;;20.87;66.98;100671.50;7284508;19;153409;-52
2021/10/01 11:05:39;;;;;;;;;;;;;;;20.85;66.72;100674.59;7291191;19;151833;-52
2021/10/01 11:08:06;;;;;;;;;;;;;;;20.88;66.80;100669.53;7291040;19;151824;-53
2021/10/01 11:10:35;;;;;;;;;;;;;;;20.84;66.64;100672.97;7288987;19;153024;-52
2021/10/01 11:13:05;;;;;;;;;;;;;;;20.84;66.43;100678.59;7295777;19;151697;-52
2021/10/01 11:15:32;;;;;;;;;;;;;;;20.81;66.50;100667.97;7288893;19;153248;-52
2021/10/01 11:18:01;;;;;;;;;;;;;;;20.79;66.48;100675.91;7287589;19;151867;-52
2021/10/01 11:20:33;;;;;;;;;;;;;;;20.81;65.73;100679.22;7289657;19;153092;-52
2021/10/01 11:23:11;;;;;;;;;;;;;;;20.84;65.90;100669.34;7289375;19;154105;-52
2021/10/01 11:25:41;;;;;;;;;;;;;;;20.83;66.06;100656.44;7288446;19;151576;-52
2021/10/01 11:28:09;;;;;;;;;;;;;;;20.84;65.91;100656.13;7288646;19;152719;-52
2021/10/01 11:30:37;;;;;;;;;;;;;;;20.86;65.79;100661.41;7285834;19;153300;-52
2021/10/01 11:33:06;;;;;;;;;;;;;;;20.86;65.78;100670.66;7283934;19;152006;-52
2021/10/01 11:35:43;;;;;;;;;;;;;;;20.84;65.83;100667.34;7294782;19;153239;-53
2021/10/01 11:38:17;;;;;;;;;;;;;;;20.83;65.87;100665.69;7289437;19;151933;-52
2021/10/01 11:40:47;;;;;;;;;;;;;;;20.84;65.33;100672.13;7289516;19;151912;-52
2021/10/01 11:43:14;;;;;;;;;;;;;;;20.80;65.78;100673.94;7286238;19;154059;-52
2021/10/01 11:45:43;;;;;;;;;;;;;;;20.81;65.12;100672.75;7289018;19;151677;-52
2021/10/01 11:48:12;;;;;;;;;;;;;;;20.75;65.64;100671.22;7288948;19;151895;-52
2021/10/01 11:50:44;;;;;;;;;;;;;;;20.74;65.03;100669.56;7285754;19;152509;-52
2021/10/01 11:53:14;;;;;;;;;;;;;;;20.72;65.10;100661.44;7286617;19;152002;-52
2021/10/01 11:55:48;;;;;;;;;;;;;;;20.77;64.76;100663.31;7289451;19;152148;-52
2021/10/01 11:58:15;;;;;;;;;;;;;;;20.81;64.65;100672.75;7295295;19;152060;-53
2021/10/01 12:00:43;;;;;;;;;;;;;;;20.79;64.76;100659.06;7122410;19;3216162;-52
2021/10/01 12:03:12;;;;;;;;;;;;;;;20.81;64.30;100662.34;7288180;19;153277;-52
2021/10/01 12:05:40;;;;;;;;;;;;;;;20.82;64.84;100658.41;7287930;19;151864;-52
2021/10/01 12:08:10;;;;;;;;;;;;;;;20.79;64.58;100659.06;7289062;19;153365;-53
2021/10/01 12:10:39;;;;;;;;;;;;;;;20.77;64.74;100654.88;7287652;19;153339;-52
2021/10/01 12:13:27;;;;;;;;;;;;;;;20.74;64.63;100656.38;7288495;19;152115;-53
2021/10/01 12:18:33;;;;;;;;;;;;;;;20.73;64.81;100657.50;7289370;19;153309;-53
2021/10/01 12:21:03;;;;;;;;;;;;;;;20.72;64.88;100658.66;7292432;19;152463;-53
2021/10/01 12:23:31;;;;;;;;;;;;;;;20.74;64.36;100658.34;7288575;19;153749;-52
2021/10/01 12:26:18;;;;;;;;;;;;;;;20.76;64.47;100659.66;7288230;19;151993;-52
2021/10/01 12:28:48;;;;;;;;;;;;;;;20.74;64.34;100659.16;7288010;19;153058;-52
2021/10/01 12:31:15;;;;;;;;;;;;;;;20.74;64.38;100659.16;7288037;19;153656;-53
2021/10/01 12:33:42;;;;;;;;;;;;;;;20.72;64.65;100666.22;7286459;19;151954;-53
2021/10/01 12:36:09;;;;;;;;;;;;;;;20.68;64.62;100657.63;7289986;19;152422;-53
2021/10/01 12:38:36;;;;;;;;;;;;;;;20.68;64.26;100652.00;7286436;19;154094;-52
2021/10/01 12:41:06;;;;;;;;;;;;;;;20.69;64.14;100667.72;7287526;19;152108;-52
2021/10/01 12:43:36;;;;;;;;;;;;;;;20.68;64.27;100656.78;7294306;19;152647;-53
2021/10/01 12:46:05;;;;;;;;;;;;;;;20.68;63.96;100645.56;7288902;19;151550;-53
2021/10/01 12:48:32;;;;;;;;;;;;;;;20.68;64.44;100652.00;7290317;19;152968;-52
2021/10/01 12:50:59;;;;;;;;;;;;;;;20.65;63.97;100658.25;7285240;19;153081;-52
2021/10/01 12:53:27;;;;;;;;;;;;;;;20.66;63.95;100653.47;7287176;19;151998;-52
2021/10/01 12:55:53;;;;;;;;;;;;;;;20.64;63.93;100662.22;7289355;19;152623;-52
2021/10/01 12:58:20;;;;;;;;;;;;;;;20.65;64.05;100660.25;7288107;19;153320;-52
2021/10/01 13:00:49;;;;;;;;;;;;;;;20.68;63.81;100657.63;7288809;19;151714;-52
2021/10/01 13:03:16;;;;;;;;;;;;;;;20.69;63.96;100661.25;7295256;19;153280;-52
2021/10/01 13:05:44;;;;;;;;;;;;;;;20.73;63.41;100659.47;7288456;19;151499;-52
2021/10/01 13:08:14;;;;;;;;;;;;;;;20.74;63.84;100658.34;7287884;19;152614;-52
2021/10/01 13:13:18;;;;;;;;;;;;;;;20.78;63.22;100650.94;7285277;19;151864;-51
2021/10/01 13:15:46;;;;;;;;;;;;;;;20.78;62.97;100654.56;7288308;19;151987;-50
2021/10/01 13:18:16;;;;;;;;;;;;;;;20.81;63.12;100650.28;7286096;19;153556;-50
2021/10/01 13:20:45;;;;;;;;;;;;;;;20.82;62.90;100654.75;7286271;19;151868;-50
2021/10/01 13:23:14;;;;;;;;;;;;;;;20.84;62.60;100655.28;7287319;19;154013;-50
2021/10/01 13:25:44;;;;;;;;;;;;;;;20.82;63.15;100668.81;7291663;19;153830;-51
2021/10/01 13:28:11;;;;;;;;;;;;;;;20.81;62.92;100675.56;7288470;19;151869;-50
2021/10/01 13:30:38;;;;;;;;;;;;;;;20.82;62.62;100671.63;7287449;19;153534;-50
2021/10/01 13:33:05;;;;;;;;;;;;;;;20.84;62.61;100678.59;7285132;19;151935;-51
2021/10/01 13:35:35;;;;;;;;;;;;;;;20.83;62.76;100673.28;7285589;19;152608;-51
2021/10/01 13:38:02;;;;;;;;;;;;;;;20.82;62.60;100686.50;7286182;19;153283;-51
2021/10/01 13:40:29;;;;;;;;;;;;;;;20.83;62.62;100687.31;7288867;19;151964;-51
2021/10/01 13:42:55;;;;;;;;;;;;;;;20.86;62.43;100684.69;7288778;19;152641;-50
2021/10/01 13:45:22;;;;;;;;;;;;;;;20.89;62.16;100688.88;7277999;19;152438;-50
2021/10/01 13:47:49;;;;;;;;;;;;;;;20.90;62.22;100686.88;7294271;19;152034;-51
2021/10/01 13:50:16;;;;;;;;;;;;;;;20.94;62.10;100690.72;7285347;19;152053;-51
2021/10/01 13:52:43;;;;;;;;;;;;;;;20.94;62.13;100687.91;7283849;19;152193;-50
2021/10/01 13:55:11;;;;;;;;;;;;;;;20.94;61.79;100679.50;7288030;19;153461;-51
2021/10/01 13:57:39;;;;;;;;;;;;;;;20.95;61.64;100681.97;7285925;19;153077;-50
2021/10/01 14:00:07;;;;;;;;;;;;;;;20.96;62.05;100680.00;7283412;19;151917;-51
2021/10/01 14:02:35;;;;;;;;;;;;;;;20.98;61.85;100694.56;7287755;19;152083;-51
2021/10/01 14:05:04;;;;;;;;;;;;;;;20.97;61.50;100687.28;7282136;19;152367;-50
2021/10/01 14:07:31;;;;;;;;;;;;;;;20.95;60.89;100695.19;7285735;19;152348;-51